コロンボ の空港の天気 - METARとTAF

バンダラナイケ国際空港 ( VCBI / CMB ) - スリランカ コロンボ
飛行場実況気象(Metar)
観測時間01/20 08:40 IST (01/20 03:10 UTC)
風向・風速北東 5m/s
視程10km以上
天気現象
少しの雲 雲底高度 550m
気温24℃
湿度83%
気圧1015hPa
METARVCBI 200310Z 04010KT 9999 FEW018 24/21 Q1015 NOSIG
過去の天気等 Google飛行場航空写真 Wunderground天気予報

過去48時間のMETAR

飛行場予報(TAF)
発表時間: 1/20 04:30 IST (1/19 23:00 UTC)
予報対象時間: 20日5時 IST ~ 21日11時 IST
風向・風速北東 6m/s
視程10km以上
少しの雲 雲底高度 550m
20日5時 IST ~ 20日7時 IST に一時的に
視程6000m
TAF VCBI 192300Z 2000/2106 04012KT 9999 FEW018 TX31/2008Z TN23/2100Z
TEMPO 2000/2002 6000